createdAt,value
2023-01-23T00:04:35.153Z,100988.98
2023-01-23T00:09:38.121Z,100999.93
2023-01-23T00:14:41.039Z,101007.29
2023-01-23T00:19:44.527Z,101008.82
2023-01-23T00:24:47.633Z,101010.36
2023-01-23T00:29:53.542Z,101017.39
2023-01-23T00:34:56.470Z,101024.42
2023-01-23T00:39:59.414Z,101026.31
2023-01-23T00:45:02.379Z,101036.06
2023-01-23T00:50:05.811Z,101049.44
2023-01-23T00:55:09.648Z,101054.39
2023-01-23T01:00:13.216Z,101063.48
2023-01-23T01:05:18.229Z,101064.14
2023-01-23T01:10:21.344Z,101068.24
2023-01-23T01:15:25.050Z,101070.14
2023-01-23T01:20:28.962Z,101070.66
2023-01-23T01:25:31.763Z,101072.73
2023-01-23T01:30:36.843Z,101078.05
2023-01-23T01:35:41.486Z,101087.64
2023-01-23T01:40:44.456Z,101090.21
2023-01-23T01:46:19.368Z,101093.27
2023-01-23T01:51:59.646Z,101093.77
2023-01-23T01:57:12.154Z,101096.15
2023-01-23T02:02:22.479Z,101088.46
2023-01-23T02:07:35.330Z,101099.44
2023-01-23T02:12:38.871Z,101094.98
2023-01-23T02:17:43.567Z,101099.45
2023-01-23T02:23:29.516Z,101111.95
2023-01-23T02:28:42.392Z,101114.02
2023-01-23T02:33:52.711Z,101113.34
2023-01-23T02:39:14.373Z,101120.02
2023-01-23T02:44:21.299Z,101118.31
2023-01-23T02:49:24.312Z,101114.89
2023-01-23T02:54:27.210Z,101110.61
2023-01-23T02:59:49.002Z,101113.85
2023-01-23T03:04:51.910Z,101110.75
2023-01-23T03:09:54.842Z,101112.12
2023-01-23T03:14:58.818Z,101117.44
2023-01-23T03:20:01.721Z,101120.53
2023-01-23T03:25:05.205Z,101123.11
2023-01-23T03:30:16.135Z,101124.48
2023-01-23T03:35:20.507Z,101124.83
2023-01-23T03:40:44.004Z,101126.55
2023-01-23T03:45:46.884Z,101132.35
2023-01-23T03:50:49.845Z,101129.58
2023-01-23T03:55:52.815Z,101138.98
2023-01-23T04:00:55.820Z,101128.89
2023-01-23T04:05:59.357Z,101130.96
2023-01-23T04:11:08.552Z,101143.83
2023-01-23T04:16:11.596Z,101146.42
2023-01-23T04:21:14.634Z,101150.02
2023-01-23T04:26:17.697Z,101151.04
2023-01-23T04:31:20.834Z,101151.20
2023-01-23T04:36:23.799Z,101148.80
2023-01-23T04:41:29.549Z,101147.79
2023-01-23T04:46:32.525Z,101159.59
2023-01-23T04:51:35.452Z,101173.81
2023-01-23T04:56:38.355Z,101186.49
2023-01-23T05:01:41.478Z,101189.05
2023-01-23T05:06:44.441Z,101200.51
2023-01-23T05:11:47.355Z,101211.84
2023-01-23T05:16:50.342Z,101219.55
2023-01-23T05:21:53.279Z,101223.66
2023-01-23T05:26:56.195Z,101220.77
2023-01-23T05:31:59.281Z,101226.09
2023-01-23T05:37:02.353Z,101227.96
2023-01-23T05:42:05.667Z,101236.34
2023-01-23T05:47:08.588Z,101238.05
2023-01-23T05:52:12.235Z,101241.15
2023-01-23T05:57:15.185Z,101238.09
2023-01-23T06:02:18.190Z,101241.70
2023-01-23T06:07:21.420Z,101245.14
2023-01-23T06:12:24.582Z,101251.80
2023-01-23T06:17:27.515Z,101265.69
2023-01-23T06:22:31.592Z,101278.38
2023-01-23T06:27:34.654Z,101285.23
2023-01-23T06:32:37.615Z,101287.11
2023-01-23T06:37:40.573Z,101297.94
2023-01-23T06:42:43.656Z,101302.90
2023-01-23T06:47:46.624Z,101303.08
2023-01-23T06:52:49.558Z,101305.11
2023-01-23T06:57:52.476Z,101307.33
2023-01-23T07:02:58.968Z,101311.78
2023-01-23T07:08:04.110Z,101313.02
2023-01-23T07:13:10.163Z,101317.78
2023-01-23T07:18:13.168Z,101322.05
2023-01-23T07:23:16.361Z,101323.74
2023-01-23T07:28:19.417Z,101330.45
2023-01-23T07:33:22.359Z,101335.95
2023-01-23T07:38:28.561Z,101336.47
2023-01-23T07:43:31.541Z,101343.66
2023-01-23T07:48:34.490Z,101349.66
2023-01-23T07:53:37.617Z,101352.08
2023-01-23T07:58:40.642Z,101357.91
2023-01-23T08:03:43.577Z,101362.20
2023-01-23T08:08:49.438Z,101360.14
2023-01-23T08:13:52.666Z,101365.94
2023-01-23T08:18:55.673Z,101364.70
2023-01-23T08:24:01.751Z,101367.10
2023-01-23T08:29:05.159Z,101373.13
2023-01-23T08:34:08.185Z,101368.84
2023-01-23T08:39:11.142Z,101366.94
2023-01-23T08:44:14.102Z,101364.70
2023-01-23T08:49:19.635Z,101368.30
2023-01-23T08:54:22.631Z,101370.70
2023-01-23T08:59:25.734Z,101378.91
2023-01-23T09:04:28.695Z,101380.11
2023-01-23T09:09:31.617Z,101379.42
2023-01-23T09:14:34.617Z,101383.91
2023-01-23T09:19:37.603Z,101385.68
2023-01-23T09:24:40.759Z,101385.37
2023-01-23T09:29:43.743Z,101381.23
2023-01-23T09:34:49.479Z,101377.61
2023-01-23T09:39:52.450Z,101375.91
2023-01-23T09:45:05.628Z,101378.68
2023-01-23T09:50:28.154Z,101376.98
2023-01-23T09:55:42.543Z,101371.48
2023-01-23T10:00:46.495Z,101368.00
2023-01-23T10:06:25.065Z,101368.15
2023-01-23T10:11:45.378Z,101366.29
2023-01-23T10:17:07.062Z,101366.52
2023-01-23T10:22:34.700Z,101371.50
2023-01-23T10:27:45.369Z,101368.63
2023-01-23T10:33:09.730Z,101370.16
2023-01-23T10:38:27.790Z,101368.27
2023-01-23T10:43:30.798Z,101364.88
2023-01-23T10:48:33.699Z,101367.80
2023-01-23T10:53:36.676Z,101373.84
2023-01-23T10:58:41.207Z,101374.20
2023-01-23T11:03:46.096Z,101367.36
2023-01-23T11:08:57.523Z,101361.53
2023-01-23T11:14:11.677Z,101358.95
2023-01-23T11:19:21.663Z,101359.64
2023-01-23T11:24:40.173Z,101358.11
2023-01-23T11:30:09.147Z,101359.85
2023-01-23T11:35:18.912Z,101360.38
2023-01-23T11:40:23.055Z,101353.34
2023-01-23T11:45:28.732Z,101354.19
2023-01-23T11:50:55.946Z,101351.61
2023-01-23T11:56:53.058Z,101354.02
2023-01-23T12:02:12.090Z,101352.81
2023-01-23T12:07:23.813Z,101345.07
2023-01-23T12:13:01.697Z,101343.52
2023-01-23T12:19:02.772Z,101343.85
2023-01-23T12:24:37.407Z,101351.75
2023-01-23T12:30:21.950Z,101344.54
2023-01-23T12:36:01.211Z,101352.26
2023-01-23T12:41:36.443Z,101348.29
2023-01-23T12:47:05.414Z,101350.71
2023-01-23T12:52:25.924Z,101348.65
2023-01-23T12:57:52.775Z,101351.55
2023-01-23T13:03:21.836Z,101359.06
2023-01-23T13:09:12.640Z,101363.02
2023-01-23T13:14:43.388Z,101366.61
2023-01-23T13:21:00.553Z,101371.23
2023-01-23T13:26:16.116Z,101376.55
2023-01-23T13:31:47.089Z,101378.75
2023-01-23T13:37:14.350Z,101379.36
2023-01-23T13:42:18.639Z,101375.05
2023-01-23T14:21:41.221Z,101384.05
2023-01-23T14:26:54.005Z,101377.29
2023-01-23T14:31:56.354Z,101378.23
2023-01-23T14:37:11.532Z,101386.27
2023-01-23T14:42:29.165Z,101390.26
2023-01-23T14:47:39.397Z,101391.99
2023-01-23T14:52:44.105Z,101399.41
2023-01-23T14:57:48.617Z,101410.44
2023-01-23T15:02:54.440Z,101420.55
2023-01-23T15:08:20.837Z,101422.11
2023-01-23T15:13:40.140Z,101424.19
2023-01-23T15:18:55.859Z,101424.36
2023-01-23T15:24:14.029Z,101425.73
2023-01-23T15:29:21.004Z,101424.86
2023-01-23T15:34:34.863Z,101424.98
2023-01-23T15:39:46.947Z,101427.38
2023-01-23T15:44:50.256Z,101430.48
2023-01-23T15:49:53.699Z,101430.14
2023-01-23T15:55:05.453Z,101434.85
2023-01-23T16:00:21.244Z,101432.58
2023-01-23T16:05:35.325Z,101438.89
2023-01-23T16:10:39.727Z,101439.91
2023-01-23T16:15:43.462Z,101442.17
2023-01-23T16:20:46.895Z,101450.77
2023-01-23T16:25:50.922Z,101451.95
2023-01-23T16:30:54.137Z,101455.16
2023-01-23T16:35:57.205Z,101456.88
2023-01-23T16:41:01.702Z,101453.97
2023-01-23T16:46:04.938Z,101456.71
2023-01-23T16:51:24.860Z,101457.39
2023-01-23T16:56:40.820Z,101452.53
2023-01-23T17:01:47.542Z,101448.23
2023-01-23T17:06:50.814Z,101451.02
2023-01-23T17:11:56.789Z,101451.17
2023-01-23T17:17:10.017Z,101450.30
2023-01-23T17:22:24.891Z,101446.85
2023-01-23T17:27:27.868Z,101447.70
2023-01-23T17:32:37.057Z,101451.46
2023-01-23T17:37:40.119Z,101453.88
2023-01-23T17:42:43.897Z,101453.85
2023-01-23T17:47:53.653Z,101461.69
2023-01-23T17:52:56.609Z,101472.31
2023-01-23T17:58:00.785Z,101467.75
2023-01-23T18:03:04.265Z,101470.02
2023-01-23T18:08:10.310Z,101468.82
2023-01-23T18:13:43.592Z,101469.99
2023-01-23T18:18:53.217Z,101474.08
2023-01-23T18:23:56.710Z,101475.16
2023-01-23T18:29:34.040Z,101478.98
2023-01-23T18:35:04.689Z,101483.95
2023-01-23T18:40:44.265Z,101487.70
2023-01-23T18:45:47.715Z,101488.26
2023-01-23T18:51:37.083Z,101484.90
2023-01-23T18:57:26.211Z,101483.41
2023-01-23T19:02:52.863Z,101487.66
2023-01-23T19:07:57.142Z,101489.55
2023-01-23T19:13:17.787Z,101483.56
2023-01-23T19:18:46.014Z,101483.14
2023-01-23T19:24:10.056Z,101480.94
2023-01-23T19:29:23.067Z,101481.92
2023-01-23T19:34:26.271Z,101482.77
2023-01-23T19:39:29.197Z,101481.58
2023-01-23T19:44:33.261Z,101488.60
2023-01-23T19:49:36.209Z,101487.77
2023-01-23T19:54:39.254Z,101491.00
2023-01-23T19:59:42.159Z,101491.34
2023-01-23T20:04:46.269Z,101490.33
2023-01-23T20:09:49.218Z,101491.88
2023-01-23T20:14:52.258Z,101492.25
2023-01-23T20:19:55.204Z,101494.86
2023-01-23T20:24:58.158Z,101496.03
2023-01-23T20:30:02.685Z,101496.02
2023-01-23T20:35:06.009Z,101496.02
2023-01-23T20:40:11.573Z,101500.99
2023-01-23T20:45:14.683Z,101502.37
2023-01-23T20:50:17.794Z,101504.42
2023-01-23T20:55:20.991Z,101502.36
2023-01-23T21:00:24.325Z,101506.80
2023-01-23T21:05:27.249Z,101505.45
2023-01-23T21:10:30.174Z,101502.36
2023-01-23T21:15:33.371Z,101507.33
2023-01-23T21:20:39.280Z,101502.80
2023-01-23T21:25:42.884Z,101508.47
2023-01-23T21:30:45.857Z,101512.11
2023-01-23T21:35:53.967Z,101508.88
2023-01-23T21:40:57.038Z,101508.02
2023-01-23T21:46:00.120Z,101509.04
2023-01-23T21:51:16.203Z,101511.79
2023-01-23T21:56:21.981Z,101518.52
2023-01-23T22:01:32.450Z,101524.23
2023-01-23T22:06:37.158Z,101523.20
2023-01-23T22:11:40.118Z,101520.62
2023-01-23T22:16:51.162Z,101514.92
2023-01-23T22:21:55.408Z,101513.02
2023-01-23T22:26:58.524Z,101513.02
2023-01-23T22:32:01.584Z,101512.34
2023-01-23T22:37:04.591Z,101512.73
2023-01-23T22:42:07.662Z,101509.36
2023-01-23T22:47:11.055Z,101509.86
2023-01-23T22:52:15.089Z,101513.10
2023-01-23T22:57:17.933Z,101513.73
2023-01-23T23:02:20.883Z,101514.88
2023-01-23T23:07:23.859Z,101513.98
2023-01-23T23:12:28.290Z,101516.58
2023-01-23T23:17:31.230Z,101516.44
2023-01-23T23:22:34.197Z,101518.58
2023-01-23T23:27:38.907Z,101521.35
2023-01-23T23:32:41.825Z,101526.50
2023-01-23T23:37:44.748Z,101531.84
2023-01-23T23:42:47.663Z,101536.96
2023-01-23T23:47:50.658Z,101542.11
2023-01-23T23:52:53.666Z,101543.17
2023-01-23T23:57:56.601Z,101540.44
